sensor_id;sensor_type;location;lat;lon;timestamp;temperature;humidity
4209;DHT22;36320;48.860;2.380;2022-12-24T00:02:13;15.00;84.80
4209;DHT22;36320;48.860;2.380;2022-12-24T00:04:39;15.10;84.70
4209;DHT22;36320;48.860;2.380;2022-12-24T00:07:05;15.00;84.70
4209;DHT22;36320;48.860;2.380;2022-12-24T00:09:32;15.10;84.70
4209;DHT22;36320;48.860;2.380;2022-12-24T00:11:59;15.10;84.60
4209;DHT22;36320;48.860;2.380;2022-12-24T00:14:24;15.10;84.60
4209;DHT22;36320;48.860;2.380;2022-12-24T00:16:50;15.00;84.40
4209;DHT22;36320;48.860;2.380;2022-12-24T00:19:16;15.00;84.60
4209;DHT22;36320;48.860;2.380;2022-12-24T00:21:42;14.90;84.60
4209;DHT22;36320;48.860;2.380;2022-12-24T00:24:07;14.80;84.70
4209;DHT22;36320;48.860;2.380;2022-12-24T00:26:33;14.80;84.70
4209;DHT22;36320;48.860;2.380;2022-12-24T00:29:00;14.80;84.70
4209;DHT22;36320;48.860;2.380;2022-12-24T00:31:26;14.90;84.70
4209;DHT22;36320;48.860;2.380;2022-12-24T00:33:52;15.00;84.50
4209;DHT22;36320;48.860;2.380;2022-12-24T00:36:18;14.90;84.50
4209;DHT22;36320;48.860;2.380;2022-12-24T00:38:44;15.00;84.40
4209;DHT22;36320;48.860;2.380;2022-12-24T00:41:11;15.00;84.30
4209;DHT22;36320;48.860;2.380;2022-12-24T00:46:17;15.00;84.30
4209;DHT22;36320;48.860;2.380;2022-12-24T00:48:42;15.00;84.30
4209;DHT22;36320;48.860;2.380;2022-12-24T00:51:08;14.90;84.30
4209;DHT22;36320;48.860;2.380;2022-12-24T00:53:34;14.90;84.50
4209;DHT22;36320;48.860;2.380;2022-12-24T00:55:59;15.00;84.40
4209;DHT22;36320;48.860;2.380;2022-12-24T00:58:25;15.00;84.30
4209;DHT22;36320;48.860;2.380;2022-12-24T01:00:51;15.00;84.40
4209;DHT22;36320;48.860;2.380;2022-12-24T01:03:17;14.90;84.30
4209;DHT22;36320;48.860;2.380;2022-12-24T01:05:42;14.90;84.30
4209;DHT22;36320;48.860;2.380;2022-12-24T01:08:08;14.90;84.50
4209;DHT22;36320;48.860;2.380;2022-12-24T01:10:34;14.90;84.70
4209;DHT22;36320;48.860;2.380;2022-12-24T01:13:02;14.90;84.70
4209;DHT22;36320;48.860;2.380;2022-12-24T01:15:28;14.90;84.70
4209;DHT22;36320;48.860;2.380;2022-12-24T01:17:55;14.80;84.90
4209;DHT22;36320;48.860;2.380;2022-12-24T01:20:21;14.80;84.80
4209;DHT22;36320;48.860;2.380;2022-12-24T01:22:46;14.70;85.10
4209;DHT22;36320;48.860;2.380;2022-12-24T01:25:15;14.70;85.20
4209;DHT22;36320;48.860;2.380;2022-12-24T01:27:41;14.70;85.20
4209;DHT22;36320;48.860;2.380;2022-12-24T01:30:07;14.80;85.30
4209;DHT22;36320;48.860;2.380;2022-12-24T01:32:34;14.80;85.30
4209;DHT22;36320;48.860;2.380;2022-12-24T01:34:59;14.70;85.20
4209;DHT22;36320;48.860;2.380;2022-12-24T01:37:25;14.70;85.40
4209;DHT22;36320;48.860;2.380;2022-12-24T01:39:52;14.80;85.50
4209;DHT22;36320;48.860;2.380;2022-12-24T01:42:38;14.80;85.60
4209;DHT22;36320;48.860;2.380;2022-12-24T01:47:56;14.70;85.60
4209;DHT22;36320;48.860;2.380;2022-12-24T01:50:22;14.70;85.90
4209;DHT22;36320;48.860;2.380;2022-12-24T01:52:48;14.60;86.10
4209;DHT22;36320;48.860;2.380;2022-12-24T01:55:16;14.70;86.00
4209;DHT22;36320;48.860;2.380;2022-12-24T01:57:55;14.70;86.00
4209;DHT22;36320;48.860;2.380;2022-12-24T02:00:23;14.80;86.30
4209;DHT22;36320;48.860;2.380;2022-12-24T02:02:51;14.80;86.20
4209;DHT22;36320;48.860;2.380;2022-12-24T02:07:46;14.60;86.40
4209;DHT22;36320;48.860;2.380;2022-12-24T02:10:15;14.70;86.40
4209;DHT22;36320;48.860;2.380;2022-12-24T02:12:42;14.70;86.30
4209;DHT22;36320;48.860;2.380;2022-12-24T02:15:12;14.70;86.30
4209;DHT22;36320;48.860;2.380;2022-12-24T02:17:40;14.70;86.20
4209;DHT22;36320;48.860;2.380;2022-12-24T02:26:44;14.70;86.70
4209;DHT22;36320;48.860;2.380;2022-12-24T02:32:09;14.60;86.50
4209;DHT22;36320;48.860;2.380;2022-12-24T02:34:43;14.70;86.50
4209;DHT22;36320;48.860;2.380;2022-12-24T02:37:46;14.60;86.70
4209;DHT22;36320;48.860;2.380;2022-12-24T02:40:12;14.70;86.50
4209;DHT22;36320;48.860;2.380;2022-12-24T02:42:41;14.70;87.20
4209;DHT22;36320;48.860;2.380;2022-12-24T02:45:22;14.80;86.50
4209;DHT22;36320;48.860;2.380;2022-12-24T02:47:51;14.80;86.50
4209;DHT22;36320;48.860;2.380;2022-12-24T02:50:18;14.80;86.50
4209;DHT22;36320;48.860;2.380;2022-12-24T02:52:45;14.80;86.40
4209;DHT22;36320;48.860;2.380;2022-12-24T02:55:45;14.90;86.20
4209;DHT22;36320;48.860;2.380;2022-12-24T03:00:53;14.80;86.50
4209;DHT22;36320;48.860;2.380;2022-12-24T03:03:37;14.80;86.40
4209;DHT22;36320;48.860;2.380;2022-12-24T03:09:27;14.90;86.30
4209;DHT22;36320;48.860;2.380;2022-12-24T03:12:19;14.90;86.20
4209;DHT22;36320;48.860;2.380;2022-12-24T03:14:50;14.80;86.20
4209;DHT22;36320;48.860;2.380;2022-12-24T03:17:23;14.70;86.20
4209;DHT22;36320;48.860;2.380;2022-12-24T03:19:50;14.70;86.50
4209;DHT22;36320;48.860;2.380;2022-12-24T03:22:17;14.70;86.40
4209;DHT22;36320;48.860;2.380;2022-12-24T03:24:43;14.40;86.10
4209;DHT22;36320;48.860;2.380;2022-12-24T03:27:10;14.60;86.60
4209;DHT22;36320;48.860;2.380;2022-12-24T03:29:39;14.70;86.70
4209;DHT22;36320;48.860;2.380;2022-12-24T03:32:09;14.80;86.50
4209;DHT22;36320;48.860;2.380;2022-12-24T03:34:35;14.80;86.60
4209;DHT22;36320;48.860;2.380;2022-12-24T03:37:01;14.90;86.30
4209;DHT22;36320;48.860;2.380;2022-12-24T03:39:26;14.90;86.20
4209;DHT22;36320;48.860;2.380;2022-12-24T03:41:54;14.80;86.40
4209;DHT22;36320;48.860;2.380;2022-12-24T03:44:19;14.90;86.50
4209;DHT22;36320;48.860;2.380;2022-12-24T03:46:45;14.80;86.10
4209;DHT22;36320;48.860;2.380;2022-12-24T03:49:11;15.00;86.20
4209;DHT22;36320;48.860;2.380;2022-12-24T03:51:40;15.10;86.10
4209;DHT22;36320;48.860;2.380;2022-12-24T03:54:06;15.00;85.90
4209;DHT22;36320;48.860;2.380;2022-12-24T03:56:31;15.00;86.10
4209;DHT22;36320;48.860;2.380;2022-12-24T03:58:57;15.00;86.20
4209;DHT22;36320;48.860;2.380;2022-12-24T04:01:23;14.90;86.20
4209;DHT22;36320;48.860;2.380;2022-12-24T04:03:49;14.80;86.50
4209;DHT22;36320;48.860;2.380;2022-12-24T04:06:15;14.80;86.80
4209;DHT22;36320;48.860;2.380;2022-12-24T04:08:42;14.80;86.80
4209;DHT22;36320;48.860;2.380;2022-12-24T04:11:10;14.80;86.70
4209;DHT22;36320;48.860;2.380;2022-12-24T04:13:37;14.40;86.60
4209;DHT22;36320;48.860;2.380;2022-12-24T04:16:08;14.60;87.10
4209;DHT22;36320;48.860;2.380;2022-12-24T04:18:35;14.60;87.30
4209;DHT22;36320;48.860;2.380;2022-12-24T04:21:01;14.70;87.10
4209;DHT22;36320;48.860;2.380;2022-12-24T04:23:29;14.70;87.00
4209;DHT22;36320;48.860;2.380;2022-12-24T04:25:59;14.60;87.40
4209;DHT22;36320;48.860;2.380;2022-12-24T04:28:25;14.50;87.50
4209;DHT22;36320;48.860;2.380;2022-12-24T04:30:50;14.40;87.90
4209;DHT22;36320;48.860;2.380;2022-12-24T04:33:16;14.40;87.90
4209;DHT22;36320;48.860;2.380;2022-12-24T04:35:42;14.50;87.70
4209;DHT22;36320;48.860;2.380;2022-12-24T04:38:08;14.50;87.70
4209;DHT22;36320;48.860;2.380;2022-12-24T04:40:35;14.60;87.80
4209;DHT22;36320;48.860;2.380;2022-12-24T04:43:01;14.60;87.70
4209;DHT22;36320;48.860;2.380;2022-12-24T04:45:26;14.60;87.70
4209;DHT22;36320;48.860;2.380;2022-12-24T04:47:52;14.60;87.70
4209;DHT22;36320;48.860;2.380;2022-12-24T04:50:18;14.60;87.70
4209;DHT22;36320;48.860;2.380;2022-12-24T04:52:44;14.50;87.70
4209;DHT22;36320;48.860;2.380;2022-12-24T04:55:09;14.50;87.90
4209;DHT22;36320;48.860;2.380;2022-12-24T04:57:36;14.60;87.70
4209;DHT22;36320;48.860;2.380;2022-12-24T05:00:04;14.50;87.70
4209;DHT22;36320;48.860;2.380;2022-12-24T05:02:30;14.60;87.90
4209;DHT22;36320;48.860;2.380;2022-12-24T05:04:57;14.60;87.60
4209;DHT22;36320;48.860;2.380;2022-12-24T05:07:22;14.60;87.60
4209;DHT22;36320;48.860;2.380;2022-12-24T05:09:48;14.60;87.80
4209;DHT22;36320;48.860;2.380;2022-12-24T05:12:14;14.60;87.80
4209;DHT22;36320;48.860;2.380;2022-12-24T05:14:40;14.50;87.80
4209;DHT22;36320;48.860;2.380;2022-12-24T05:17:06;14.60;88.70
4209;DHT22;36320;48.860;2.380;2022-12-24T05:19:32;14.60;88.00
4209;DHT22;36320;48.860;2.380;2022-12-24T05:21:58;14.70;87.80
4209;DHT22;36320;48.860;2.380;2022-12-24T05:24:42;14.70;87.80
4209;DHT22;36320;48.860;2.380;2022-12-24T05:27:26;14.60;87.90
4209;DHT22;36320;48.860;2.380;2022-12-24T05:29:52;14.50;88.20
4209;DHT22;36320;48.860;2.380;2022-12-24T05:32:21;14.60;88.30
4209;DHT22;36320;48.860;2.380;2022-12-24T05:34:46;14.60;88.10
4209;DHT22;36320;48.860;2.380;2022-12-24T05:37:12;14.60;88.10
4209;DHT22;36320;48.860;2.380;2022-12-24T05:39:38;14.50;88.20
4209;DHT22;36320;48.860;2.380;2022-12-24T05:42:05;14.50;88.40
4209;DHT22;36320;48.860;2.380;2022-12-24T05:44:31;14.50;88.60
4209;DHT22;36320;48.860;2.380;2022-12-24T05:46:56;14.60;88.70
4209;DHT22;36320;48.860;2.380;2022-12-24T05:49:22;14.60;88.60
4209;DHT22;36320;48.860;2.380;2022-12-24T05:51:48;14.50;88.80
4209;DHT22;36320;48.860;2.380;2022-12-24T05:54:13;14.10;88.70
4209;DHT22;36320;48.860;2.380;2022-12-24T05:56:39;14.50;89.80
4209;DHT22;36320;48.860;2.380;2022-12-24T05:59:05;14.50;88.90
4209;DHT22;36320;48.860;2.380;2022-12-24T06:01:31;14.40;89.10
4209;DHT22;36320;48.860;2.380;2022-12-24T06:03:57;14.50;89.30
4209;DHT22;36320;48.860;2.380;2022-12-24T06:06:24;14.30;89.60
4209;DHT22;36320;48.860;2.380;2022-12-24T06:08:51;14.40;89.80
4209;DHT22;36320;48.860;2.380;2022-12-24T06:11:21;14.60;89.60
4209;DHT22;36320;48.860;2.380;2022-12-24T06:13:47;14.60;89.60
4209;DHT22;36320;48.860;2.380;2022-12-24T06:16:17;14.50;89.50
4209;DHT22;36320;48.860;2.380;2022-12-24T06:18:44;14.40;89.60
4209;DHT22;36320;48.860;2.380;2022-12-24T06:21:11;14.40;89.90
4209;DHT22;36320;48.860;2.380;2022-12-24T06:23:38;14.40;89.70
4209;DHT22;36320;48.860;2.380;2022-12-24T06:26:05;14.50;89.70
4209;DHT22;36320;48.860;2.380;2022-12-24T06:28:34;14.50;89.40
4209;DHT22;36320;48.860;2.380;2022-12-24T06:31:01;14.50;89.50
4209;DHT22;36320;48.860;2.380;2022-12-24T06:33:27;14.50;89.60
4209;DHT22;36320;48.860;2.380;2022-12-24T06:35:53;14.50;89.50
4209;DHT22;36320;48.860;2.380;2022-12-24T06:38:18;14.60;89.50
4209;DHT22;36320;48.860;2.380;2022-12-24T06:40:45;14.50;89.30
4209;DHT22;36320;48.860;2.380;2022-12-24T06:43:12;14.50;89.20
4209;DHT22;36320;48.860;2.380;2022-12-24T06:45:38;14.50;89.20
4209;DHT22;36320;48.860;2.380;2022-12-24T06:48:05;14.60;89.00
4209;DHT22;36320;48.860;2.380;2022-12-24T06:50:34;14.60;88.90
4209;DHT22;36320;48.860;2.380;2022-12-24T06:53:00;14.60;88.60
4209;DHT22;36320;48.860;2.380;2022-12-24T06:55:27;14.60;88.60
4209;DHT22;36320;48.860;2.380;2022-12-24T06:57:52;14.60;88.60
4209;DHT22;36320;48.860;2.380;2022-12-24T07:00:18;14.60;88.50
4209;DHT22;36320;48.860;2.380;2022-12-24T07:02:46;14.60;88.40
4209;DHT22;36320;48.860;2.380;2022-12-24T07:05:12;14.50;88.20
4209;DHT22;36320;48.860;2.380;2022-12-24T07:07:40;14.50;88.40
4209;DHT22;36320;48.860;2.380;2022-12-24T07:10:09;14.40;88.30
4209;DHT22;36320;48.860;2.380;2022-12-24T07:12:35;14.40;88.40
4209;DHT22;36320;48.860;2.380;2022-12-24T07:15:01;14.40;88.20
4209;DHT22;36320;48.860;2.380;2022-12-24T07:17:27;14.50;88.00
4209;DHT22;36320;48.860;2.380;2022-12-24T07:19:52;14.40;87.90
4209;DHT22;36320;48.860;2.380;2022-12-24T07:22:19;14.40;88.10
4209;DHT22;36320;48.860;2.380;2022-12-24T07:24:46;14.40;88.00
4209;DHT22;36320;48.860;2.380;2022-12-24T07:27:12;14.40;88.10
4209;DHT22;36320;48.860;2.380;2022-12-24T07:29:37;14.30;87.80
4209;DHT22;36320;48.860;2.380;2022-12-24T07:32:04;14.30;87.80
4209;DHT22;36320;48.860;2.380;2022-12-24T07:34:30;14.30;87.50
4209;DHT22;36320;48.860;2.380;2022-12-24T07:36:57;14.20;87.70
4209;DHT22;36320;48.860;2.380;2022-12-24T07:39:23;14.30;87.70
4209;DHT22;36320;48.860;2.380;2022-12-24T07:41:48;14.20;87.60
4209;DHT22;36320;48.860;2.380;2022-12-24T07:44:15;14.20;87.50
4209;DHT22;36320;48.860;2.380;2022-12-24T07:46:42;14.30;87.50
4209;DHT22;36320;48.860;2.380;2022-12-24T07:49:08;14.40;88.20
4209;DHT22;36320;48.860;2.380;2022-12-24T07:51:35;14.40;87.20
4209;DHT22;36320;48.860;2.380;2022-12-24T07:54:00;14.60;86.90
4209;DHT22;36320;48.860;2.380;2022-12-24T07:56:26;14.60;86.60
4209;DHT22;36320;48.860;2.380;2022-12-24T07:58:52;14.50;86.70
4209;DHT22;36320;48.860;2.380;2022-12-24T08:01:19;14.60;86.80
4209;DHT22;36320;48.860;2.380;2022-12-24T08:03:45;14.60;86.50
4209;DHT22;36320;48.860;2.380;2022-12-24T08:06:12;14.60;86.30
4209;DHT22;36320;48.860;2.380;2022-12-24T08:08:38;14.70;86.40
4209;DHT22;36320;48.860;2.380;2022-12-24T08:11:05;14.40;85.90
4209;DHT22;36320;48.860;2.380;2022-12-24T08:13:31;14.50;86.20
4209;DHT22;36320;48.860;2.380;2022-12-24T08:15:58;14.50;86.40
4209;DHT22;36320;48.860;2.380;2022-12-24T08:18:24;14.50;86.50
4209;DHT22;36320;48.860;2.380;2022-12-24T08:20:50;14.50;86.30
4209;DHT22;36320;48.860;2.380;2022-12-24T08:23:15;14.60;86.40
4209;DHT22;36320;48.860;2.380;2022-12-24T08:25:43;14.50;86.20
4209;DHT22;36320;48.860;2.380;2022-12-24T08:28:09;14.50;86.30
4209;DHT22;36320;48.860;2.380;2022-12-24T08:30:36;14.60;86.30
4209;DHT22;36320;48.860;2.380;2022-12-24T08:33:02;14.60;86.00
4209;DHT22;36320;48.860;2.380;2022-12-24T08:35:28;14.60;86.10
4209;DHT22;36320;48.860;2.380;2022-12-24T08:37:54;14.60;86.00
4209;DHT22;36320;48.860;2.380;2022-12-24T08:40:21;14.70;85.90
4209;DHT22;36320;48.860;2.380;2022-12-24T08:42:47;14.70;86.10
4209;DHT22;36320;48.860;2.380;2022-12-24T08:45:13;14.60;85.70
4209;DHT22;36320;48.860;2.380;2022-12-24T08:47:39;14.60;86.60
4209;DHT22;36320;48.860;2.380;2022-12-24T08:50:06;14.80;85.90
4209;DHT22;36320;48.860;2.380;2022-12-24T08:52:32;14.80;85.60
4209;DHT22;36320;48.860;2.380;2022-12-24T08:54:58;14.90;85.40
4209;DHT22;36320;48.860;2.380;2022-12-24T08:57:24;14.90;85.40
4209;DHT22;36320;48.860;2.380;2022-12-24T08:59:49;14.90;85.30
4209;DHT22;36320;48.860;2.380;2022-12-24T09:02:15;14.90;85.40
4209;DHT22;36320;48.860;2.380;2022-12-24T09:04:41;14.90;85.30
4209;DHT22;36320;48.860;2.380;2022-12-24T09:07:09;15.00;85.20
4209;DHT22;36320;48.860;2.380;2022-12-24T09:09:35;15.00;85.10
4209;DHT22;36320;48.860;2.380;2022-12-24T09:12:03;14.90;85.10
4209;DHT22;36320;48.860;2.380;2022-12-24T09:14:29;15.00;85.20
4209;DHT22;36320;48.860;2.380;2022-12-24T09:16:56;15.00;84.80
4209;DHT22;36320;48.860;2.380;2022-12-24T09:19:22;15.00;84.90
4209;DHT22;36320;48.860;2.380;2022-12-24T09:21:48;15.20;84.70
4209;DHT22;36320;48.860;2.380;2022-12-24T09:24:14;15.10;84.40
4209;DHT22;36320;48.860;2.380;2022-12-24T09:26:40;15.10;84.60
4209;DHT22;36320;48.860;2.380;2022-12-24T09:29:07;15.10;84.60
4209;DHT22;36320;48.860;2.380;2022-12-24T09:31:34;15.10;84.50
4209;DHT22;36320;48.860;2.380;2022-12-24T09:33:59;15.10;84.50
4209;DHT22;36320;48.860;2.380;2022-12-24T09:36:25;15.20;84.40
4209;DHT22;36320;48.860;2.380;2022-12-24T09:38:51;15.20;84.30
4209;DHT22;36320;48.860;2.380;2022-12-24T09:44:48;15.10;84.30
4209;DHT22;36320;48.860;2.380;2022-12-24T09:47:40;15.10;84.10
4209;DHT22;36320;48.860;2.380;2022-12-24T09:53:02;15.00;84.60
4209;DHT22;36320;48.860;2.380;2022-12-24T09:55:39;15.00;84.60
4209;DHT22;36320;48.860;2.380;2022-12-24T09:58:15;15.00;84.80
4209;DHT22;36320;48.860;2.380;2022-12-24T10:00:43;15.20;84.60
4209;DHT22;36320;48.860;2.380;2022-12-24T10:03:16;15.30;84.50
4209;DHT22;36320;48.860;2.380;2022-12-24T10:05:49;15.40;84.20
4209;DHT22;36320;48.860;2.380;2022-12-24T10:08:30;15.20;84.20
4209;DHT22;36320;48.860;2.380;2022-12-24T10:11:12;15.20;84.50
4209;DHT22;36320;48.860;2.380;2022-12-24T10:17:35;15.30;84.20
4209;DHT22;36320;48.860;2.380;2022-12-24T10:20:16;15.10;84.20
4209;DHT22;36320;48.860;2.380;2022-12-24T10:31:29;15.20;85.30
4209;DHT22;36320;48.860;2.380;2022-12-24T10:34:00;15.30;84.50
4209;DHT22;36320;48.860;2.380;2022-12-24T10:36:28;15.10;84.40
4209;DHT22;36320;48.860;2.380;2022-12-24T10:38:54;15.40;84.60
4209;DHT22;36320;48.860;2.380;2022-12-24T10:41:24;15.50;84.20
4209;DHT22;36320;48.860;2.380;2022-12-24T10:43:52;15.60;84.00
4209;DHT22;36320;48.860;2.380;2022-12-24T10:46:29;15.50;83.70
4209;DHT22;36320;48.860;2.380;2022-12-24T10:49:03;15.50;83.90
4209;DHT22;36320;48.860;2.380;2022-12-24T10:51:39;15.60;84.10
4209;DHT22;36320;48.860;2.380;2022-12-24T10:54:19;15.60;83.50
4209;DHT22;36320;48.860;2.380;2022-12-24T10:56:49;15.90;83.30
4209;DHT22;36320;48.860;2.380;2022-12-24T11:01:52;15.70;83.20
4209;DHT22;36320;48.860;2.380;2022-12-24T11:04:24;15.70;83.30
4209;DHT22;36320;48.860;2.380;2022-12-24T11:07:04;15.10;82.60
4209;DHT22;36320;48.860;2.380;2022-12-24T11:09:39;15.40;83.30
4209;DHT22;36320;48.860;2.380;2022-12-24T11:12:18;15.40;83.80
4209;DHT22;36320;48.860;2.380;2022-12-24T11:14:46;15.50;83.70
4209;DHT22;36320;48.860;2.380;2022-12-24T11:17:31;15.70;83.70
4209;DHT22;36320;48.860;2.380;2022-12-24T11:19:58;15.70;83.40
4209;DHT22;36320;48.860;2.380;2022-12-24T11:22:29;15.80;83.40
4209;DHT22;36320;48.860;2.380;2022-12-24T11:25:05;15.80;83.10
4209;DHT22;36320;48.860;2.380;2022-12-24T11:27:41;15.60;83.10
4209;DHT22;36320;48.860;2.380;2022-12-24T11:35:28;15.70;83.20
4209;DHT22;36320;48.860;2.380;2022-12-24T11:41:15;15.80;83.10
4209;DHT22;36320;48.860;2.380;2022-12-24T11:43:24;15.90;82.80
4209;DHT22;36320;48.860;2.380;2022-12-24T11:45:55;16.00;82.70
4209;DHT22;36320;48.860;2.380;2022-12-24T11:48:29;16.30;82.70
4209;DHT22;36320;48.860;2.380;2022-12-24T11:51:16;16.40;82.20
4209;DHT22;36320;48.860;2.380;2022-12-24T11:56:40;16.40;81.80
4209;DHT22;36320;48.860;2.380;2022-12-24T11:59:33;16.30;81.90
4209;DHT22;36320;48.860;2.380;2022-12-24T12:02:40;16.20;82.20
4209;DHT22;36320;48.860;2.380;2022-12-24T12:05:12;16.30;82.40
4209;DHT22;36320;48.860;2.380;2022-12-24T12:07:47;16.30;82.50
4209;DHT22;36320;48.860;2.380;2022-12-24T12:10:23;16.30;82.70
4209;DHT22;36320;48.860;2.380;2022-12-24T12:13:02;16.30;82.50
4209;DHT22;36320;48.860;2.380;2022-12-24T12:15:43;16.30;82.60
4209;DHT22;36320;48.860;2.380;2022-12-24T12:18:25;16.20;82.90
4209;DHT22;36320;48.860;2.380;2022-12-24T12:20:58;16.30;83.00
4209;DHT22;36320;48.860;2.380;2022-12-24T12:23:29;16.40;83.90
4209;DHT22;36320;48.860;2.380;2022-12-24T12:28:40;16.40;83.40
4209;DHT22;36320;48.860;2.380;2022-12-24T12:34:09;16.40;83.50
4209;DHT22;36320;48.860;2.380;2022-12-24T12:39:10;16.20;83.80
4209;DHT22;36320;48.860;2.380;2022-12-24T12:47:16;16.10;84.30
4209;DHT22;36320;48.860;2.380;2022-12-24T13:01:46;16.10;84.40
4209;DHT22;36320;48.860;2.380;2022-12-24T13:10:15;16.00;84.30
4209;DHT22;36320;48.860;2.380;2022-12-24T13:16:01;16.00;84.00
4209;DHT22;36320;48.860;2.380;2022-12-24T13:21:32;16.00;84.30
4209;DHT22;36320;48.860;2.380;2022-12-24T13:24:24;16.00;84.10
4209;DHT22;36320;48.860;2.380;2022-12-24T13:27:30;15.80;84.10
4209;DHT22;36320;48.860;2.380;2022-12-24T13:37:44;15.90;84.30
4209;DHT22;36320;48.860;2.380;2022-12-24T13:45:49;15.90;84.20
4209;DHT22;36320;48.860;2.380;2022-12-24T13:50:52;15.70;84.10
4209;DHT22;36320;48.860;2.380;2022-12-24T13:53:31;15.70;84.30
4209;DHT22;36320;48.860;2.380;2022-12-24T13:58:30;16.00;84.10
4209;DHT22;36320;48.860;2.380;2022-12-24T14:01:00;16.00;84.10
4209;DHT22;36320;48.860;2.380;2022-12-24T14:06:20;15.60;84.60
4209;DHT22;36320;48.860;2.380;2022-12-24T14:08:49;15.70;85.10
4209;DHT22;36320;48.860;2.380;2022-12-24T14:11:25;14.90;84.50
4209;DHT22;36320;48.860;2.380;2022-12-24T14:14:09;15.60;85.40
4209;DHT22;36320;48.860;2.380;2022-12-24T14:16:47;15.70;85.60
4209;DHT22;36320;48.860;2.380;2022-12-24T14:19:27;15.80;85.70
4209;DHT22;36320;48.860;2.380;2022-12-24T14:24:41;15.60;86.00
4209;DHT22;36320;48.860;2.380;2022-12-24T14:27:20;15.60;86.20
4209;DHT22;36320;48.860;2.380;2022-12-24T14:30:00;15.60;86.70
4209;DHT22;36320;48.860;2.380;2022-12-24T14:32:40;15.70;86.50
4209;DHT22;36320;48.860;2.380;2022-12-24T14:37:33;15.30;86.80
4209;DHT22;36320;48.860;2.380;2022-12-24T14:40:00;15.30;87.10
4209;DHT22;36320;48.860;2.380;2022-12-24T14:53:58;15.80;86.10
4209;DHT22;36320;48.860;2.380;2022-12-24T14:56:24;15.70;86.40
4209;DHT22;36320;48.860;2.380;2022-12-24T14:58:50;15.70;86.70
4209;DHT22;36320;48.860;2.380;2022-12-24T15:01:27;15.70;86.60
4209;DHT22;36320;48.860;2.380;2022-12-24T15:06:48;15.80;86.50
4209;DHT22;36320;48.860;2.380;2022-12-24T15:09:29;15.90;86.50
4209;DHT22;36320;48.860;2.380;2022-12-24T15:11:59;16.00;86.30
4209;DHT22;36320;48.860;2.380;2022-12-24T15:14:29;16.00;86.20
4209;DHT22;36320;48.860;2.380;2022-12-24T15:17:02;16.00;86.20
4209;DHT22;36320;48.860;2.380;2022-12-24T15:19:40;15.90;85.90
4209;DHT22;36320;48.860;2.380;2022-12-24T15:22:11;15.80;86.10
4209;DHT22;36320;48.860;2.380;2022-12-24T15:24:46;15.70;86.30
4209;DHT22;36320;48.860;2.380;2022-12-24T15:27:15;15.60;86.60
4209;DHT22;36320;48.860;2.380;2022-12-24T15:29:43;15.70;86.50
4209;DHT22;36320;48.860;2.380;2022-12-24T15:32:21;15.70;86.40
4209;DHT22;36320;48.860;2.380;2022-12-24T15:34:54;15.80;86.50
4209;DHT22;36320;48.860;2.380;2022-12-24T15:37:22;15.80;86.40
4209;DHT22;36320;48.860;2.380;2022-12-24T15:39:56;15.70;86.20
4209;DHT22;36320;48.860;2.380;2022-12-24T15:42:24;15.60;86.50
4209;DHT22;36320;48.860;2.380;2022-12-24T15:47:35;15.60;86.40
4209;DHT22;36320;48.860;2.380;2022-12-24T15:50:30;15.60;86.40
4209;DHT22;36320;48.860;2.380;2022-12-24T15:58:33;15.70;86.10
4209;DHT22;36320;48.860;2.380;2022-12-24T16:01:26;15.70;86.10
4209;DHT22;36320;48.860;2.380;2022-12-24T16:06:20;15.70;86.10
4209;DHT22;36320;48.860;2.380;2022-12-24T16:08:46;15.70;86.10
4209;DHT22;36320;48.860;2.380;2022-12-24T16:11:19;15.60;86.00
4209;DHT22;36320;48.860;2.380;2022-12-24T16:14:06;15.70;86.20
4209;DHT22;36320;48.860;2.380;2022-12-24T16:16:43;15.60;86.00
4209;DHT22;36320;48.860;2.380;2022-12-24T16:19:40;15.60;86.30
4209;DHT22;36320;48.860;2.380;2022-12-24T16:22:16;15.50;86.40
4209;DHT22;36320;48.860;2.380;2022-12-24T16:25:13;15.40;86.60
4209;DHT22;36320;48.860;2.380;2022-12-24T16:27:39;15.30;86.80
4209;DHT22;36320;48.860;2.380;2022-12-24T16:30:06;15.30;87.00
4209;DHT22;36320;48.860;2.380;2022-12-24T16:32:34;15.40;87.00
4209;DHT22;36320;48.860;2.380;2022-12-24T16:35:02;15.40;86.80
4209;DHT22;36320;48.860;2.380;2022-12-24T16:37:28;15.50;86.90
4209;DHT22;36320;48.860;2.380;2022-12-24T16:39:53;15.50;86.80
4209;DHT22;36320;48.860;2.380;2022-12-24T16:42:19;15.50;86.70
4209;DHT22;36320;48.860;2.380;2022-12-24T16:45:08;15.50;86.90
4209;DHT22;36320;48.860;2.380;2022-12-24T16:47:35;15.60;86.90
4209;DHT22;36320;48.860;2.380;2022-12-24T16:50:04;15.40;86.70
4209;DHT22;36320;48.860;2.380;2022-12-24T16:52:31;15.40;87.80
4209;DHT22;36320;48.860;2.380;2022-12-24T16:55:00;15.40;87.10
4209;DHT22;36320;48.860;2.380;2022-12-24T16:57:26;15.40;87.90
4209;DHT22;36320;48.860;2.380;2022-12-24T16:59:52;15.40;87.50
4209;DHT22;36320;48.860;2.380;2022-12-24T17:02:20;15.20;87.50
4209;DHT22;36320;48.860;2.380;2022-12-24T17:04:47;15.20;87.80
4209;DHT22;36320;48.860;2.380;2022-12-24T17:07:15;15.30;87.80
4209;DHT22;36320;48.860;2.380;2022-12-24T17:09:46;15.40;87.90
4209;DHT22;36320;48.860;2.380;2022-12-24T17:12:14;15.40;87.90
4209;DHT22;36320;48.860;2.380;2022-12-24T17:14:47;15.40;87.80
4209;DHT22;36320;48.860;2.380;2022-12-24T17:17:27;15.50;88.00
4209;DHT22;36320;48.860;2.380;2022-12-24T17:19:54;15.50;88.00
4209;DHT22;36320;48.860;2.380;2022-12-24T17:22:20;15.50;88.10
4209;DHT22;36320;48.860;2.380;2022-12-24T17:24:46;15.40;88.10
4209;DHT22;36320;48.860;2.380;2022-12-24T17:27:12;15.50;88.30
4209;DHT22;36320;48.860;2.380;2022-12-24T17:29:38;15.30;88.40
4209;DHT22;36320;48.860;2.380;2022-12-24T17:32:04;15.30;88.40
4209;DHT22;36320;48.860;2.380;2022-12-24T17:34:30;15.20;88.60
4209;DHT22;36320;48.860;2.380;2022-12-24T17:36:55;15.20;88.70
4209;DHT22;36320;48.860;2.380;2022-12-24T17:39:21;15.30;88.80
4209;DHT22;36320;48.860;2.380;2022-12-24T17:41:47;15.00;88.80
4209;DHT22;36320;48.860;2.380;2022-12-24T17:44:13;15.00;89.10
4209;DHT22;36320;48.860;2.380;2022-12-24T17:46:40;15.20;89.30
4209;DHT22;36320;48.860;2.380;2022-12-24T17:49:06;15.10;89.00
4209;DHT22;36320;48.860;2.380;2022-12-24T17:51:33;15.10;89.30
4209;DHT22;36320;48.860;2.380;2022-12-24T17:53:59;15.20;89.20
4209;DHT22;36320;48.860;2.380;2022-12-24T17:56:26;15.30;89.20
4209;DHT22;36320;48.860;2.380;2022-12-24T17:58:52;15.30;89.10
4209;DHT22;36320;48.860;2.380;2022-12-24T18:01:24;15.40;89.10
4209;DHT22;36320;48.860;2.380;2022-12-24T18:03:51;15.40;89.00
4209;DHT22;36320;48.860;2.380;2022-12-24T18:06:19;15.40;88.80
4209;DHT22;36320;48.860;2.380;2022-12-24T18:08:45;15.40;88.80
4209;DHT22;36320;48.860;2.380;2022-12-24T18:13:41;15.40;88.80
4209;DHT22;36320;48.860;2.380;2022-12-24T18:16:20;15.40;89.00
4209;DHT22;36320;48.860;2.380;2022-12-24T18:18:46;15.30;88.90
4209;DHT22;36320;48.860;2.380;2022-12-24T18:21:14;15.30;89.00
4209;DHT22;36320;48.860;2.380;2022-12-24T18:23:44;15.50;89.30
4209;DHT22;36320;48.860;2.380;2022-12-24T18:26:11;15.30;89.10
4209;DHT22;36320;48.860;2.380;2022-12-24T18:28:37;15.20;89.00